Time;durP1;ratioP1;P1;durP2;ratioP2;P2;SDS_P1;SDS_P2;PMS_P1;PMS_P2;Temp;Humidity;BMP_temperature;BMP_pressure;BME280_temperature;BME280_humidity;BME280_pressure;Samples;Min_cycle;Max_cycle;Signal;HPM_P1;HPM_P2
2021/12/31 00:01:26;;;;;;;2.60;1.10;;;;;;;15.28;62.31;100724.50;10069210;29;20273;-81
2021/12/31 00:06:29;;;;;;;4.63;1.13;;;;;;;15.05;61.97;100720.28;10084616;29;20230;-85
2021/12/31 00:11:33;;;;;;;4.03;1.23;;;;;;;14.76;63.26;100723.16;10086194;29;20225;-82
2021/12/31 00:16:35;;;;;;;2.93;1.17;;;;;;;14.86;63.11;100728.41;10092172;29;20761;-84
2021/12/31 00:21:38;;;;;;;4.50;1.27;;;;;;;14.91;62.73;100729.03;10069046;29;20237;-83
2021/12/31 00:26:40;;;;;;;4.77;1.40;;;;;;;15.27;60.81;100708.69;10074064;29;20603;-83
2021/12/31 00:31:42;;;;;;;5.17;1.00;;;;;;;15.18;61.50;100702.22;10074392;29;20238;-81
2021/12/31 00:36:46;;;;;;;3.63;0.90;;;;;;;15.13;61.57;100710.09;10090418;29;20233;-82
2021/12/31 00:41:49;;;;;;;1.10;0.80;;;;;;;15.19;60.29;100697.41;10077572;29;20214;-84
2021/12/31 00:46:51;;;;;;;3.10;1.07;;;;;;;15.34;59.94;100717.44;10097377;29;20213;-83
2021/12/31 00:51:53;;;;;;;3.30;1.50;;;;;;;14.86;61.97;100703.78;10081337;29;20245;-82
2021/12/31 00:57:02;;;;;;;3.27;0.90;;;;;;;15.07;60.78;100709.44;10065558;29;20210;-83
2021/12/31 01:02:05;;;;;;;4.33;1.00;;;;;;;14.99;61.07;100713.19;10068226;29;20477;-84
2021/12/31 01:07:08;;;;;;;3.60;0.70;;;;;;;15.61;57.66;100713.22;10090819;29;20253;-84
2021/12/31 01:12:12;;;;;;;4.90;1.10;;;;;;;15.81;57.17;100730.53;10081842;29;20230;-83
2021/12/31 01:17:16;;;;;;;3.27;0.73;;;;;;;15.47;58.29;100714.66;10096617;29;20679;-83
2021/12/31 01:22:23;;;;;;;3.80;0.80;;;;;;;15.55;57.54;100722.28;10082074;29;20269;-82
2021/12/31 01:27:25;;;;;;;3.70;0.70;;;;;;;15.70;56.69;100718.78;10083854;29;20626;-83
2021/12/31 01:32:27;;;;;;;3.63;0.73;;;;;;;15.82;56.07;100727.34;10063422;29;20278;-82
2021/12/31 01:37:30;;;;;;;0.33;0.30;;;;;;;15.40;56.79;100732.22;10082014;29;20206;-82
2021/12/31 01:42:33;;;;;;;2.53;0.87;;;;;;;15.27;57.54;100716.34;10064557;29;20202;-86
2021/12/31 01:52:58;;;;;;;4.53;0.87;;;;;;;15.60;56.28;100724.88;10098179;29;20261;-85
2021/12/31 01:58:01;;;;;;;2.30;0.70;;;;;;;15.33;56.90;100731.94;10078378;29;20257;-83
2021/12/31 02:03:05;;;;;;;1.63;0.70;;;;;;;15.37;57.37;100730.91;10075182;29;20249;-83
2021/12/31 02:08:07;;;;;;;1.90;0.83;;;;;;;15.34;57.12;100740.09;10089723;29;20576;-83
2021/12/31 02:13:10;;;;;;;2.83;0.87;;;;;;;15.18;57.42;100729.69;10074898;29;20289;-84
2021/12/31 02:18:12;;;;;;;2.97;0.97;;;;;;;15.66;56.00;100723.50;10046663;29;20294;-86
2021/12/31 02:23:15;;;;;;;8.60;0.97;;;;;;;15.02;57.18;100716.16;10053699;29;20616;-83
2021/12/31 02:28:18;;;;;;;2.03;0.50;;;;;;;15.37;55.82;100733.75;10087736;29;20234;-82
2021/12/31 02:33:20;;;;;;;3.90;0.80;;;;;;;15.19;55.62;100732.19;10067540;29;20295;-83
2021/12/31 02:38:22;;;;;;;1.13;0.60;;;;;;;15.52;54.83;100735.13;10056706;29;20278;-83
2021/12/31 02:43:25;;;;;;;1.47;0.43;;;;;;;15.24;55.89;100729.19;10071822;29;20234;-82
2021/12/31 02:48:28;;;;;;;2.97;0.70;;;;;;;15.61;55.24;100723.72;10055177;29;20214;-81
2021/12/31 02:53:41;;;;;;;1.53;0.53;;;;;;;15.64;54.54;100726.69;10055501;29;20265;-82
2021/12/31 02:58:43;;;;;;;3.73;0.60;;;;;;;15.90;54.05;100717.94;10071189;29;20249;-82
2021/12/31 03:03:47;;;;;;;2.93;0.70;;;;;;;15.93;53.98;100705.09;10098615;29;20266;-85
2021/12/31 03:08:52;;;;;;;2.70;0.67;;;;;;;15.76;54.31;100714.56;10082941;29;20262;-82
2021/12/31 03:13:54;;;;;;;3.83;0.50;;;;;;;14.94;56.16;100713.38;10083206;29;20331;-82
2021/12/31 03:18:57;;;;;;;3.10;0.80;;;;;;;16.02;53.80;100723.66;10054679;29;20262;-82
2021/12/31 03:24:00;;;;;;;1.80;0.60;;;;;;;15.87;53.47;100724.28;10059891;29;20529;-83
2021/12/31 03:29:02;;;;;;;2.33;0.40;;;;;;;15.40;54.41;100712.41;10077075;29;20758;-82
2021/12/31 03:34:05;;;;;;;1.07;0.40;;;;;;;15.24;55.02;100717.84;10059485;29;20269;-82
2021/12/31 03:39:08;;;;;;;2.80;0.67;;;;;;;15.48;54.12;100720.00;10052126;29;20607;-83
2021/12/31 03:44:10;;;;;;;3.73;0.57;;;;;;;15.48;54.32;100707.84;10070152;29;20295;-82
2021/12/31 03:49:12;;;;;;;1.67;0.40;;;;;;;15.64;53.31;100709.69;10079364;29;20239;-81
2021/12/31 03:54:14;;;;;;;4.87;0.67;;;;;;;16.18;51.73;100701.16;10083858;29;20238;-83
2021/12/31 03:59:16;;;;;;;2.75;0.60;;;;;;;16.00;52.32;100705.34;10063074;29;20274;-82
2021/12/31 04:04:19;;;;;;;1.27;0.60;;;;;;;15.82;52.02;100710.34;10074216;29;20242;-84
2021/12/31 04:09:21;;;;;;;2.23;0.60;;;;;;;16.20;51.82;100695.94;10084768;29;20564;-83
2021/12/31 04:14:23;;;;;;;2.53;0.60;;;;;;;15.33;54.06;100686.63;10072917;29;20272;-83
2021/12/31 04:19:26;;;;;;;3.00;0.43;;;;;;;15.77;53.27;100690.75;10068472;29;20310;-84
2021/12/31 04:29:50;;;;;;;2.10;0.60;;;;;;;15.87;52.46;100693.13;10079873;29;20612;-83
2021/12/31 04:34:52;;;;;;;0.40;0.37;;;;;;;15.52;53.17;100689.81;10053696;29;20774;-83
2021/12/31 04:39:55;;;;;;;1.05;0.52;;;;;;;15.91;51.85;100674.25;10048545;29;20214;-83
2021/12/31 04:44:57;;;;;;;3.60;0.60;;;;;;;15.62;52.89;100682.88;10065487;29;20215;-81
2021/12/31 04:49:59;;;;;;;1.53;0.40;;;;;;;16.08;50.75;100678.91;10076792;29;20233;-84
2021/12/31 04:55:02;;;;;;;1.87;0.37;;;;;;;16.14;51.22;100680.34;10087087;29;20261;-82
2021/12/31 05:00:06;;;;;;;1.27;0.50;;;;;;;15.90;51.59;100683.94;10089545;29;20615;-82
2021/12/31 05:05:09;;;;;;;1.37;0.57;;;;;;;16.20;51.20;100680.97;10070513;29;20217;-83
2021/12/31 05:10:11;;;;;;;1.63;0.70;;;;;;;15.89;51.52;100676.59;10078672;29;20269;-83
2021/12/31 05:15:13;;;;;;;3.60;0.40;;;;;;;15.97;51.11;100670.00;10080726;29;20555;-83
2021/12/31 05:20:15;;;;;;;3.53;0.73;;;;;;;16.03;51.23;100676.31;10086735;29;20233;-83
2021/12/31 05:25:18;;;;;;;1.58;0.50;;;;;;;16.10;51.47;100670.88;10075638;29;20264;-83
2021/12/31 05:30:21;;;;;;;1.90;0.80;;;;;;;15.93;51.42;100682.41;10080008;29;20229;-82
2021/12/31 05:35:23;;;;;;;2.63;0.70;;;;;;;15.67;51.75;100685.50;10079710;29;20670;-82
2021/12/31 05:40:26;;;;;;;1.03;0.40;;;;;;;15.35;53.07;100668.13;10078496;29;20202;-85
2021/12/31 05:45:28;;;;;;;3.97;0.40;;;;;;;15.52;53.09;100663.50;10078823;29;20250;-84
2021/12/31 05:50:35;;;;;;;3.47;0.40;;;;;;;15.64;52.59;100652.22;10079646;29;20477;-83
2021/12/31 05:55:37;;;;;;;0.67;0.40;;;;;;;15.97;51.14;100646.50;10079144;29;20647;-82
2021/12/31 06:00:39;;;;;;;0.43;0.40;;;;;;;15.98;51.01;100653.84;10063584;29;20245;-84
2021/12/31 06:05:42;;;;;;;2.20;0.40;;;;;;;15.33;53.59;100649.84;10064632;29;20290;-81
2021/12/31 06:10:44;;;;;;;1.50;0.40;;;;;;;15.86;51.79;100650.97;10088500;29;20264;-81
2021/12/31 06:15:49;;;;;;;0.70;0.30;;;;;;;16.09;51.18;100636.03;10088560;29;20222;-82
2021/12/31 06:20:51;;;;;;;2.23;0.43;;;;;;;15.48;51.90;100625.72;10073454;29;20214;-82
2021/12/31 06:25:53;;;;;;;2.93;0.40;;;;;;;16.14;50.33;100642.69;10098134;29;20206;-82
2021/12/31 06:30:55;;;;;;;1.43;0.30;;;;;;;15.78;51.41;100652.72;10077679;29;20222;-82
2021/12/31 06:35:57;;;;;;;1.23;0.43;;;;;;;15.49;51.99;100667.03;10103046;29;20258;-82
2021/12/31 06:41:00;;;;;;;2.13;0.50;;;;;;;16.14;50.39;100668.19;10120545;29;20214;-84
2021/12/31 06:46:02;;;;;;;1.07;0.40;;;;;;;16.53;49.75;100667.50;10073106;29;20305;-82
2021/12/31 06:51:04;;;;;;;4.57;0.60;;;;;;;15.91;51.23;100662.91;10108352;29;20499;-80
2021/12/31 06:56:06;;;;;;;0.40;0.30;;;;;;;16.22;50.65;100659.56;10113845;29;20546;-80
2021/12/31 07:01:09;;;;;;;2.37;0.53;;;;;;;15.68;52.67;100636.19;10105109;29;20615;-81
2021/12/31 07:06:11;;;;;;;1.60;0.60;;;;;;;15.29;53.68;100649.69;10101552;29;20281;-82
2021/12/31 07:11:13;;;;;;;2.50;0.50;;;;;;;15.67;52.57;100640.19;10086415;29;20241;-80
2021/12/31 07:16:16;;;;;;;2.63;0.50;;;;;;;15.50;52.82;100646.03;10092659;29;20260;-82
2021/12/31 07:21:18;;;;;;;1.83;0.63;;;;;;;15.28;53.39;100656.56;10091535;29;20217;-82
2021/12/31 07:26:20;;;;;;;1.93;0.77;;;;;;;15.65;52.75;100659.53;10090314;29;20206;-83
2021/12/31 07:31:22;;;;;;;1.60;0.70;;;;;;;14.90;55.11;100661.50;10101502;29;20238;-81
2021/12/31 07:36:27;;;;;;;1.90;0.77;;;;;;;15.03;54.91;100666.06;10098648;29;20655;-83
2021/12/31 07:41:29;;;;;;;3.07;0.70;;;;;;;15.61;52.55;100656.56;10072307;29;20274;-84
2021/12/31 07:46:32;;;;;;;2.40;0.60;;;;;;;14.66;55.56;100662.94;10090681;29;20631;-83
2021/12/31 07:51:34;;;;;;;1.70;0.70;;;;;;;15.37;53.71;100659.31;10109060;29;20205;-81
2021/12/31 07:56:36;;;;;;;1.47;0.60;;;;;;;14.69;55.29;100655.78;10102086;29;20226;-84
2021/12/31 08:01:39;;;;;;;2.37;0.60;;;;;;;15.64;52.48;100657.88;10116402;29;20245;-83
2021/12/31 08:06:41;;;;;;;2.63;0.63;;;;;;;15.35;53.29;100667.31;10081986;29;20707;-83
2021/12/31 08:11:43;;;;;;;1.37;0.90;;;;;;;14.46;56.30;100662.91;10086201;29;20289;-83
2021/12/31 08:16:45;;;;;;;2.00;0.70;;;;;;;14.71;55.14;100658.28;10094270;29;20262;-82
2021/12/31 08:21:48;;;;;;;2.30;0.90;;;;;;;14.69;55.51;100658.63;10094752;29;20567;-82
2021/12/31 08:26:50;;;;;;;1.97;0.80;;;;;;;14.84;54.42;100660.84;10092841;29;20232;-82
2021/12/31 08:31:52;;;;;;;2.97;0.80;;;;;;;15.20;53.80;100653.78;10094429;29;20202;-82
2021/12/31 08:36:54;;;;;;;0.83;0.53;;;;;;;14.88;54.88;100652.50;10122670;29;20221;-83
2021/12/31 08:41:59;;;;;;;1.93;1.17;;;;;;;14.38;56.17;100656.16;10107786;29;20270;-81
2021/12/31 08:47:02;;;;;;;3.87;0.90;;;;;;;14.48;55.99;100667.06;10093917;29;20267;-81
2021/12/31 08:52:04;;;;;;;0.90;0.60;;;;;;;14.96;53.42;100662.94;10117847;29;20256;-81
2021/12/31 08:57:06;;;;;;;3.53;0.77;;;;;;;15.19;53.52;100674.75;10099195;29;20217;-82
2021/12/31 09:02:10;;;;;;;1.70;0.57;;;;;;;14.47;55.40;100682.38;10084234;29;20303;-82
2021/12/31 09:07:12;;;;;;;1.90;0.60;;;;;;;15.10;54.28;100673.97;10069001;29;20229;-82
2021/12/31 09:12:15;;;;;;;2.00;0.83;;;;;;;14.88;54.31;100675.16;10110104;29;20511;-81
2021/12/31 09:17:17;;;;;;;6.80;0.63;;;;;;;15.81;51.35;100676.72;10099801;29;20259;-82
2021/12/31 09:22:19;;;;;;;2.00;0.77;;;;;;;14.80;53.95;100676.00;10085948;29;20404;-83
2021/12/31 09:27:21;;;;;;;3.23;0.60;;;;;;;15.44;52.01;100681.38;10103259;29;20197;-83
2021/12/31 09:32:24;;;;;;;1.30;0.50;;;;;;;15.12;52.68;100675.31;10086089;29;20618;-81
2021/12/31 09:37:26;;;;;;;2.87;0.60;;;;;;;14.99;53.12;100660.25;10097535;29;20257;-81
2021/12/31 09:42:28;;;;;;;2.53;0.83;;;;;;;14.40;54.88;100659.44;10081661;29;20217;-82
2021/12/31 09:47:30;;;;;;;0.97;0.50;;;;;;;15.74;50.84;100665.94;10101884;29;20249;-82
2021/12/31 09:52:34;;;;;;;1.17;0.60;;;;;;;15.00;52.92;100659.09;10101043;29;20278;-83
2021/12/31 09:57:36;;;;;;;1.47;0.40;;;;;;;15.38;51.60;100661.78;10095664;29;20278;-82
2021/12/31 10:02:40;;;;;;;4.10;1.10;;;;;;;15.48;50.88;100654.03;10083894;29;20595;-83
2021/12/31 10:07:43;;;;;;;0.77;0.50;;;;;;;15.39;51.04;100669.09;10086877;29;20225;-82
2021/12/31 10:12:52;;;;;;;1.40;0.40;;;;;;;15.78;50.45;100635.75;10102944;29;20205;-83
2021/12/31 10:17:54;;;;;;;5.83;0.40;;;;;;;14.97;51.66;100645.63;10091891;29;20285;-82
2021/12/31 10:23:14;;;;;;;2.10;0.40;;;;;;;14.65;52.58;100638.66;10078166;29;20237;-83
2021/12/31 10:28:17;;;;;;;0.65;0.63;;;;;;;15.19;51.56;100652.94;10104371;29;20268;-84
2021/12/31 10:33:39;;;;;;;1.97;0.50;;;;;;;15.13;51.54;100654.31;10122551;29;20206;-81
2021/12/31 10:38:43;;;;;;;2.17;0.70;;;;;;;15.18;52.21;100667.41;10102627;29;20213;-82
2021/12/31 10:43:45;;;;;;;2.20;0.70;;;;;;;15.92;49.89;100653.25;10098771;29;20214;-82
2021/12/31 10:48:54;;;;;;;1.77;1.03;;;;;;;15.76;50.86;100666.41;10098529;29;20242;-82
2021/12/31 10:54:16;;;;;;;2.57;0.67;;;;;;;14.87;52.80;100665.00;10111715;29;20217;-81
2021/12/31 10:59:18;;;;;;;2.07;0.70;;;;;;;15.42;51.36;100663.94;10107699;29;20209;-84
2021/12/31 11:04:21;;;;;;;1.93;0.60;;;;;;;15.71;50.03;100663.78;10084560;29;20205;-82
2021/12/31 11:09:24;;;;;;;1.90;0.40;;;;;;;15.20;51.91;100674.44;10081806;29;20301;-83
2021/12/31 11:14:27;;;;;;;1.53;0.60;;;;;;;15.33;51.26;100664.81;10099928;29;20443;-83
2021/12/31 11:19:30;;;;;;;0.73;0.30;;;;;;;15.44;50.66;100641.75;10080522;29;20604;-82
2021/12/31 11:24:36;;;;;;;1.20;0.47;;;;;;;15.19;51.68;100652.94;10072074;29;20210;-83
2021/12/31 11:29:39;;;;;;;1.13;0.50;;;;;;;14.92;51.62;100647.81;10090740;29;20512;-81
2021/12/31 11:34:41;;;;;;;1.00;0.50;;;;;;;16.17;49.38;100619.31;10109325;29;20232;-81
2021/12/31 11:39:43;;;;;;;1.90;0.50;;;;;;;15.79;49.79;100637.41;10088873;29;20587;-82
2021/12/31 11:45:05;;;;;;;3.07;0.50;;;;;;;15.89;49.69;100647.44;10080013;29;20206;-83
2021/12/31 11:50:25;;;;;;;1.77;0.47;;;;;;;15.65;49.80;100649.03;10089908;29;20297;-82
2021/12/31 11:55:27;;;;;;;0.87;0.30;;;;;;;15.81;49.15;100640.69;10094331;29;20298;-85
2021/12/31 12:00:29;;;;;;;2.97;0.60;;;;;;;15.07;51.27;100637.88;10103571;29;20296;-81
2021/12/31 12:05:40;;;;;;;1.43;0.60;;;;;;;15.70;49.95;100611.16;10087768;29;20241;-82
2021/12/31 12:10:42;;;;;;;1.03;0.50;;;;;;;15.69;49.79;100598.97;10101234;29;20229;-81
2021/12/31 12:15:44;;;;;;;3.40;0.80;;;;;;;15.58;50.52;100577.97;10100805;29;20317;-82
2021/12/31 12:20:50;;;;;;;1.77;1.00;;;;;;;15.83;49.47;100595.00;10082704;29;20281;-81
2021/12/31 12:25:52;;;;;;;2.03;0.70;;;;;;;15.62;50.22;100597.91;10104806;29;20245;-83
2021/12/31 12:31:04;;;;;;;1.70;0.50;;;;;;;15.46;50.65;100596.91;10100425;29;20226;-83
2021/12/31 12:36:07;;;;;;;0.77;0.43;;;;;;;16.43;48.14;100600.75;10096961;29;20234;-84
2021/12/31 12:41:10;;;;;;;1.57;0.77;;;;;;;16.10;48.58;100598.03;10092632;29;20221;-82
2021/12/31 12:46:17;;;;;;;0.73;0.60;;;;;;;16.03;48.60;100579.97;10075067;29;20543;-83
2021/12/31 12:51:31;;;;;;;0.90;0.50;;;;;;;16.29;48.70;100563.44;10073060;29;20221;-82
2021/12/31 12:56:33;;;;;;;1.27;0.70;;;;;;;16.05;49.22;100578.44;10097697;29;20301;-82
2021/12/31 13:01:38;;;;;;;2.78;0.60;;;;;;;16.24;48.92;100568.50;10068208;29;20250;-82
2021/12/31 13:07:07;;;;;;;2.17;0.60;;;;;;;16.26;49.11;100549.13;10084397;29;20567;-84
2021/12/31 13:12:15;;;;;;;2.17;0.57;;;;;;;16.39;48.44;100539.41;10102707;29;20261;-82
2021/12/31 13:17:23;;;;;;;1.60;0.70;;;;;;;15.60;50.43;100520.97;10107769;29;20257;-82
2021/12/31 13:22:32;;;;;;;2.00;0.50;;;;;;;16.20;48.69;100525.03;10070674;29;20302;-82
2021/12/31 13:27:38;;;;;;;0.83;0.40;;;;;;;15.44;50.03;100546.28;10080440;29;20233;-84
2021/12/31 13:32:47;;;;;;;1.23;0.50;;;;;;;16.39;48.08;100570.63;10074401;29;20249;-83
2021/12/31 13:38:00;;;;;;;0.80;0.50;;;;;;;15.83;49.95;100564.66;10081760;29;20256;-84
2021/12/31 13:43:05;;;;;;;0.67;0.40;;;;;;;15.67;49.73;100589.22;10064526;29;20627;-84
2021/12/31 13:48:10;;;;;;;2.63;0.50;;;;;;;15.50;50.45;100586.56;10116455;29;20253;-82
2021/12/31 13:53:31;;;;;;;0.77;0.50;;;;;;;15.94;49.64;100608.34;10116110;29;20293;-84
2021/12/31 13:58:40;;;;;;;1.67;0.83;;;;;;;16.67;47.78;100599.91;10101740;29;20341;-85
2021/12/31 14:03:42;;;;;;;0.87;0.60;;;;;;;16.56;47.89;100610.06;10100146;29;20281;-82
2021/12/31 14:08:44;;;;;;;1.03;0.60;;;;;;;15.87;49.66;100619.47;10086463;29;20726;-82
2021/12/31 14:13:47;;;;;;;1.57;0.80;;;;;;;16.00;49.39;100626.84;10091433;29;20232;-82
2021/12/31 14:18:49;;;;;;;1.70;0.97;;;;;;;15.68;53.43;100658.84;10093119;29;20264;-82
2021/12/31 14:23:51;;;;;;;3.27;1.07;;;;;;;15.91;53.75;100662.09;10112680;29;20242;-84
2021/12/31 14:28:54;;;;;;;3.72;1.45;;;;;;;15.34;56.13;100658.00;10083381;29;20600;-82
2021/12/31 14:33:56;;;;;;;2.83;0.90;;;;;;;15.96;53.71;100651.34;10089349;29;20233;-82
2021/12/31 14:39:22;;;;;;;2.53;1.00;;;;;;;15.45;54.97;100661.22;10084388;29;20252;-82
2021/12/31 14:44:24;;;;;;;3.00;1.27;;;;;;;15.60;54.60;100656.91;10119132;29;20288;-81
2021/12/31 14:49:28;;;;;;;3.90;1.23;;;;;;;15.24;55.88;100661.25;10077404;29;20233;-82
2021/12/31 14:54:31;;;;;;;4.00;1.07;;;;;;;15.10;56.22;100669.16;10087665;29;20241;-81
2021/12/31 14:59:35;;;;;;;2.73;1.30;;;;;;;15.58;54.67;100673.41;10066276;29;20366;-82
2021/12/31 15:04:37;;;;;;;3.67;1.60;;;;;;;16.25;52.56;100661.69;10096669;29;20240;-81
2021/12/31 15:09:39;;;;;;;2.67;1.20;;;;;;;15.93;53.10;100662.56;10084068;29;20261;-82
2021/12/31 15:14:41;;;;;;;1.57;0.97;;;;;;;15.42;54.70;100684.59;10093967;29;20312;-81
2021/12/31 15:19:44;;;;;;;2.80;1.23;;;;;;;15.51;54.56;100688.16;10085156;29;20260;-82
2021/12/31 15:24:47;;;;;;;3.83;1.60;;;;;;;15.78;53.78;100685.91;10105115;29;20269;-83
2021/12/31 15:29:51;;;;;;;1.87;1.30;;;;;;;15.04;55.92;100707.31;10068156;29;20245;-82
2021/12/31 15:34:54;;;;;;;2.53;1.20;;;;;;;15.85;53.08;100720.97;10084546;29;20265;-81
2021/12/31 15:39:56;;;;;;;2.93;1.50;;;;;;;15.38;54.47;100711.94;10083381;29;20229;-83
2021/12/31 15:44:59;;;;;;;2.03;1.47;;;;;;;15.86;53.65;100728.31;10064078;29;20301;-81
2021/12/31 15:50:02;;;;;;;4.93;2.30;;;;;;;15.38;55.57;100732.56;10088989;29;20273;-82
2021/12/31 15:55:08;;;;;;;4.87;3.10;;;;;;;15.49;55.13;100746.31;10082164;29;20245;-81
2021/12/31 16:00:13;;;;;;;3.93;1.83;;;;;;;15.27;56.86;100745.47;10097084;29;20273;-82
2021/12/31 16:05:16;;;;;;;6.03;3.53;;;;;;;15.73;55.27;100754.94;10097923;29;20297;-83
2021/12/31 16:10:18;;;;;;;4.37;2.03;;;;;;;15.46;56.48;100752.66;10074133;29;20268;-83
2021/12/31 16:15:20;;;;;;;5.97;2.73;;;;;;;15.64;55.37;100748.53;10093864;29;20266;-83
2021/12/31 16:20:22;;;;;;;3.57;2.30;;;;;;;15.29;56.71;100760.09;10076540;29;20603;-82
2021/12/31 16:25:25;;;;;;;5.93;2.60;;;;;;;16.21;54.74;100753.47;10076684;29;20232;-81
2021/12/31 16:30:27;;;;;;;5.77;2.87;;;;;;;15.56;55.94;100755.06;10078116;29;20685;-83
2021/12/31 16:35:29;;;;;;;7.23;5.07;;;;;;;16.25;53.77;100762.94;10073350;29;20261;-82
2021/12/31 16:40:32;;;;;;;6.97;3.13;;;;;;;15.80;55.70;100766.53;10066912;29;20320;-81
2021/12/31 16:45:34;;;;;;;4.27;3.30;;;;;;;15.97;54.31;100774.88;10097839;29;20368;-83
2021/12/31 16:50:37;;;;;;;4.47;3.20;;;;;;;15.94;54.66;100801.06;10074285;29;20607;-82
2021/12/31 16:55:39;;;;;;;4.97;3.10;;;;;;;16.24;53.74;100786.81;10089594;29;20250;-82
2021/12/31 17:00:42;;;;;;;5.07;2.80;;;;;;;15.70;55.49;100798.09;10076332;29;20233;-82
2021/12/31 17:05:45;;;;;;;5.90;3.40;;;;;;;15.22;56.77;100793.78;10107149;29;20288;-83
2021/12/31 17:10:47;;;;;;;5.17;3.90;;;;;;;15.95;54.20;100794.22;10094280;29;20312;-82
2021/12/31 17:15:51;;;;;;;5.03;3.93;;;;;;;15.69;55.76;100814.28;10078605;29;20273;-82
2021/12/31 17:20:53;;;;;;;5.77;4.17;;;;;;;15.61;55.83;100823.69;10075377;29;20249;-83
2021/12/31 17:25:55;;;;;;;6.20;4.63;;;;;;;15.57;56.49;100833.19;10091243;29;20233;-82
2021/12/31 17:30:57;;;;;;;7.43;4.43;;;;;;;15.47;56.48;100840.09;10089056;29;20289;-83
2021/12/31 17:36:00;;;;;;;6.50;5.33;;;;;;;15.63;56.59;100843.16;10075193;29;20244;-83
2021/12/31 17:41:03;;;;;;;8.90;5.93;;;;;;;15.79;56.04;100852.72;10090556;29;20620;-83
2021/12/31 17:46:05;;;;;;;6.17;5.23;;;;;;;15.85;56.09;100856.97;10089748;29;20233;-83
2021/12/31 17:51:09;;;;;;;8.33;5.60;;;;;;;15.44;57.69;100873.94;10079671;29;20605;-83
2021/12/31 17:56:12;;;;;;;6.63;4.90;;;;;;;15.78;56.97;100884.22;10111058;29;20245;-82
2021/12/31 18:01:14;;;;;;;6.93;6.10;;;;;;;15.19;58.17;100884.22;10092557;29;20279;-82
2021/12/31 18:06:17;;;;;;;7.23;5.77;;;;;;;16.09;55.32;100885.50;10076784;29;20562;-83
2021/12/31 18:11:19;;;;;;;8.47;5.63;;;;;;;15.71;56.13;100890.41;10075249;29;20284;-83
2021/12/31 18:16:22;;;;;;;7.40;5.53;;;;;;;15.71;55.80;100904.56;10078119;29;20257;-83
2021/12/31 18:21:24;;;;;;;9.33;7.13;;;;;;;15.70;56.31;100928.41;10077645;29;20270;-83
2021/12/31 18:26:26;;;;;;;10.17;7.23;;;;;;;15.71;56.70;100928.06;10077084;29;20229;-82
2021/12/31 18:31:29;;;;;;;15.63;7.83;;;;;;;15.18;58.80;100928.66;10112099;29;20615;-82
2021/12/31 18:36:31;;;;;;;11.10;7.60;;;;;;;15.00;59.04;100930.72;10064634;29;20712;-82
2021/12/31 18:41:34;;;;;;;8.90;6.73;;;;;;;15.49;57.83;100941.72;10063166;29;20254;-82
2021/12/31 18:46:50;;;;;;;10.63;6.70;;;;;;;15.18;58.76;100951.28;10068123;29;20290;-83
2021/12/31 18:51:53;;;;;;;9.87;5.90;;;;;;;15.14;59.30;100960.81;10045517;29;20269;-83
2021/12/31 18:56:55;;;;;;;7.33;6.27;;;;;;;15.20;58.71;100971.63;10062518;29;20677;-82
2021/12/31 19:01:59;;;;;;;6.82;5.78;;;;;;;15.19;58.52;100983.28;10060465;29;20237;-83
2021/12/31 19:07:01;;;;;;;6.13;5.53;;;;;;;15.53;57.72;100990.84;10053153;29;20265;-82
2021/12/31 19:12:07;;;;;;;6.33;5.27;;;;;;;15.36;57.82;100988.91;10054525;29;20250;-83
2021/12/31 19:17:12;;;;;;;7.13;4.80;;;;;;;15.44;57.87;100987.19;10081279;29;20254;-82
2021/12/31 19:22:15;;;;;;;5.83;4.93;;;;;;;15.75;56.85;100988.56;10079137;29;20237;-83
2021/12/31 19:27:17;;;;;;;7.90;4.60;;;;;;;15.64;57.35;101000.63;10079574;29;20270;-82
2021/12/31 19:32:19;;;;;;;6.90;4.93;;;;;;;16.19;55.21;100980.66;10060227;29;20607;-81
2021/12/31 19:37:23;;;;;;;7.40;5.13;;;;;;;15.58;57.36;100993.47;10059421;29;20254;-83
2021/12/31 19:42:25;;;;;;;7.87;5.20;;;;;;;16.43;54.57;100999.81;10075116;29;20297;-81
2021/12/31 19:47:27;;;;;;;7.23;5.73;;;;;;;16.17;55.43;100999.19;10067657;29;20719;-83
2021/12/31 19:52:29;;;;;;;9.83;6.27;;;;;;;15.85;56.40;101007.16;10072322;29;20237;-81
2021/12/31 19:57:32;;;;;;;10.10;6.80;;;;;;;15.73;57.19;101021.22;10064577;29;20313;-82
2021/12/31 20:02:34;;;;;;;10.63;6.00;;;;;;;15.47;57.20;101024.16;10089943;29;20313;-84
2021/12/31 20:07:36;;;;;;;7.93;5.90;;;;;;;16.07;55.60;101035.22;10084073;29;20333;-81
2021/12/31 20:12:40;;;;;;;8.27;5.47;;;;;;;16.00;56.07;101034.97;10070605;29;20246;-83
2021/12/31 20:17:44;;;;;;;7.73;5.73;;;;;;;15.51;56.82;101050.66;10065797;29;20733;-83
2021/12/31 20:22:47;;;;;;;8.80;6.53;;;;;;;16.40;54.00;101037.38;10057063;29;20291;-81
2021/12/31 20:27:53;;;;;;;8.90;6.27;;;;;;;15.79;56.48;101051.03;10049425;29;20242;-82
2021/12/31 20:32:55;;;;;;;7.63;6.20;;;;;;;16.02;56.25;101049.63;10048398;29;20549;-83
2021/12/31 20:37:57;;;;;;;9.52;6.75;;;;;;;16.09;55.80;101049.06;10072688;29;20807;-82
2021/12/31 20:43:00;;;;;;;10.77;8.10;;;;;;;15.81;55.72;101051.50;10046990;29;20273;-82
2021/12/31 20:48:02;;;;;;;15.23;12.27;;;;;;;16.12;55.11;101058.91;10082573;29;20233;-84
2021/12/31 20:53:04;;;;;;;7.37;6.57;;;;;;;15.24;57.89;101073.72;10058238;29;20245;-84
2021/12/31 20:58:07;;;;;;;8.63;6.63;;;;;;;16.04;55.45;101069.97;10059307;29;20715;-82
2021/12/31 21:03:09;;;;;;;11.97;8.10;;;;;;;15.96;55.57;101073.63;10072492;29;20266;-82
2021/12/31 21:08:11;;;;;;;9.43;7.23;;;;;;;15.20;58.18;101079.19;10070349;29;20253;-82
2021/12/31 21:13:14;;;;;;;9.60;7.30;;;;;;;15.68;56.17;101075.25;10059048;29;20368;-82
2021/12/31 21:18:16;;;;;;;12.17;8.10;;;;;;;15.55;56.60;101073.47;10074831;29;20269;-81
2021/12/31 21:23:19;;;;;;;10.57;6.93;;;;;;;15.86;55.91;101088.16;10077120;29;20238;-81
2021/12/31 21:28:22;;;;;;;10.10;7.07;;;;;;;15.51;56.44;101089.47;10069989;29;20360;-84
2021/12/31 21:33:24;;;;;;;8.27;6.37;;;;;;;16.02;55.68;101094.97;10067674;29;20241;-81
2021/12/31 21:38:26;;;;;;;11.40;7.07;;;;;;;15.97;55.52;101095.13;10091605;29;20261;-83
2021/12/31 21:43:29;;;;;;;10.53;6.80;;;;;;;16.15;55.18;101106.41;10059339;29;20316;-82
2021/12/31 21:48:35;;;;;;;10.97;6.50;;;;;;;15.31;57.24;101134.31;10058528;29;20245;-83
2021/12/31 21:53:38;;;;;;;10.80;6.50;;;;;;;15.65;56.67;101139.09;10096950;29;20241;-81
2021/12/31 21:58:40;;;;;;;11.60;7.20;;;;;;;15.97;55.52;101146.13;10076684;29;20611;-83
2021/12/31 22:03:42;;;;;;;13.93;6.87;;;;;;;15.91;55.71;101138.19;10093036;29;20611;-81
2021/12/31 22:08:44;;;;;;;11.40;7.63;;;;;;;15.62;56.14;101141.75;10065073;29;20276;-82
2021/12/31 22:13:47;;;;;;;10.40;6.10;;;;;;;15.64;55.94;101143.09;10103380;29;20237;-83
2021/12/31 22:18:49;;;;;;;11.50;7.23;;;;;;;16.07;55.48;101154.28;10084896;29;20265;-82
2021/12/31 22:23:52;;;;;;;11.30;6.00;;;;;;;15.45;56.95;101167.25;10099853;29;20237;-83
2021/12/31 22:28:54;;;;;;;10.63;6.07;;;;;;;15.70;56.59;101170.06;10102744;29;20224;-85
2021/12/31 22:34:02;;;;;;;12.33;6.77;;;;;;;15.72;55.92;101169.72;10073958;29;20249;-81
2021/12/31 22:39:04;;;;;;;8.47;6.67;;;;;;;16.23;54.73;101167.91;10109637;29;20288;-82
2021/12/31 22:44:07;;;;;;;12.23;8.37;;;;;;;15.78;56.03;101168.38;10079468;29;20236;-81
2021/12/31 22:49:09;;;;;;;9.53;5.30;;;;;;;15.76;56.49;101173.56;10094219;29;20241;-82
2021/12/31 22:54:14;;;;;;;8.43;6.63;;;;;;;15.19;58.42;101172.94;10069184;29;20237;-84
2021/12/31 22:59:16;;;;;;;11.70;6.40;;;;;;;15.41;57.52;101171.94;10081464;29;20297;-80
2021/12/31 23:04:19;;;;;;;20.57;15.03;;;;;;;16.06;55.67;101172.50;10065499;29;20233;-82
2021/12/31 23:09:22;;;;;;;98.30;78.30;;;;;;;15.56;56.77;101174.25;10080035;29;20261;-81
2021/12/31 23:14:24;;;;;;;109.67;86.37;;;;;;;16.13;55.38;101168.28;10067468;29;20317;-83
2021/12/31 23:19:27;;;;;;;71.63;55.37;;;;;;;16.35;54.02;101177.34;10073502;29;20276;-84
2021/12/31 23:24:29;;;;;;;66.23;55.87;;;;;;;15.60;56.72;101178.06;10087539;29;20690;-82